sensor_id;sensor_type;location;lat;lon;timestamp;P1;durP1;ratioP1;P2;durP2;ratioP2
32329;SDS011;18807;52.434;13.238;2023-04-16T00:12:08;27.85;;;18.52;;
32329;SDS011;18807;52.434;13.238;2023-04-16T00:19:42;27.38;;;17.50;;
32329;SDS011;18807;52.434;13.238;2023-04-16T00:27:26;26.70;;;19.20;;
32329;SDS011;18807;52.434;13.238;2023-04-16T00:35:09;31.10;;;20.33;;
32329;SDS011;18807;52.434;13.238;2023-04-16T00:50:42;30.70;;;21.23;;
32329;SDS011;18807;52.434;13.238;2023-04-16T01:06:41;34.28;;;21.85;;
32329;SDS011;18807;52.434;13.238;2023-04-16T01:14:16;29.02;;;19.45;;
32329;SDS011;18807;52.434;13.238;2023-04-16T01:22:03;28.75;;;17.67;;
32329;SDS011;18807;52.434;13.238;2023-04-16T01:30:00;32.95;;;21.15;;
32329;SDS011;18807;52.434;13.238;2023-04-16T02:01:59;34.45;;;20.58;;
32329;SDS011;18807;52.434;13.238;2023-04-16T02:09:52;36.63;;;20.05;;
32329;SDS011;18807;52.434;13.238;2023-04-16T02:17:38;32.90;;;20.38;;
32329;SDS011;18807;52.434;13.238;2023-04-16T02:25:52;33.20;;;20.90;;
32329;SDS011;18807;52.434;13.238;2023-04-16T02:33:36;34.17;;;19.65;;
32329;SDS011;18807;52.434;13.238;2023-04-16T02:41:20;27.35;;;18.95;;
32329;SDS011;18807;52.434;13.238;2023-04-16T02:57:59;32.00;;;20.30;;
32329;SDS011;18807;52.434;13.238;2023-04-16T03:05:36;37.03;;;21.58;;
32329;SDS011;18807;52.434;13.238;2023-04-16T03:38:34;46.42;;;23.60;;
32329;SDS011;18807;52.434;13.238;2023-04-16T03:46:16;46.72;;;25.77;;
32329;SDS011;18807;52.434;13.238;2023-04-16T03:54:05;37.40;;;22.77;;
32329;SDS011;18807;52.434;13.238;2023-04-16T04:01:47;39.08;;;22.35;;
32329;SDS011;18807;52.434;13.238;2023-04-16T04:09:38;38.20;;;21.42;;
32329;SDS011;18807;52.434;13.238;2023-04-16T04:17:18;36.97;;;21.63;;
32329;SDS011;18807;52.434;13.238;2023-04-16T04:41:09;38.97;;;21.80;;
32329;SDS011;18807;52.434;13.238;2023-04-16T04:57:24;38.58;;;22.58;;
32329;SDS011;18807;52.434;13.238;2023-04-16T05:04:58;39.25;;;22.77;;
32329;SDS011;18807;52.434;13.238;2023-04-16T05:12:37;41.50;;;21.17;;
32329;SDS011;18807;52.434;13.238;2023-04-16T05:20:11;40.60;;;21.80;;
32329;SDS011;18807;52.434;13.238;2023-04-16T05:28:39;42.10;;;21.73;;
32329;SDS011;18807;52.434;13.238;2023-04-16T05:36:19;38.63;;;20.25;;
32329;SDS011;18807;52.434;13.238;2023-04-16T05:52:46;35.35;;;21.13;;
32329;SDS011;18807;52.434;13.238;2023-04-16T06:00:21;38.13;;;20.87;;
32329;SDS011;18807;52.434;13.238;2023-04-16T06:08:13;37.47;;;19.02;;
32329;SDS011;18807;52.434;13.238;2023-04-16T06:15:48;33.37;;;17.97;;
32329;SDS011;18807;52.434;13.238;2023-04-16T06:23:23;31.55;;;18.98;;
32329;SDS011;18807;52.434;13.238;2023-04-16T06:30:58;29.30;;;17.33;;
32329;SDS011;18807;52.434;13.238;2023-04-16T06:38:34;35.97;;;18.40;;
32329;SDS011;18807;52.434;13.238;2023-04-16T06:46:11;31.17;;;17.15;;
32329;SDS011;18807;52.434;13.238;2023-04-16T06:53:45;31.73;;;16.75;;
32329;SDS011;18807;52.434;13.238;2023-04-16T07:01:20;30.87;;;18.30;;
32329;SDS011;18807;52.434;13.238;2023-04-16T07:08:55;37.20;;;19.88;;
32329;SDS011;18807;52.434;13.238;2023-04-16T07:16:30;29.80;;;18.80;;
32329;SDS011;18807;52.434;13.238;2023-04-16T07:24:04;31.85;;;19.35;;
32329;SDS011;18807;52.434;13.238;2023-04-16T07:31:40;30.77;;;17.63;;
32329;SDS011;18807;52.434;13.238;2023-04-16T07:39:15;31.88;;;18.58;;
32329;SDS011;18807;52.434;13.238;2023-04-16T07:46:51;28.45;;;16.25;;
32329;SDS011;18807;52.434;13.238;2023-04-16T07:54:25;31.85;;;18.10;;
32329;SDS011;18807;52.434;13.238;2023-04-16T08:02:01;27.60;;;15.55;;
32329;SDS011;18807;52.434;13.238;2023-04-16T08:09:45;29.77;;;17.17;;
32329;SDS011;18807;52.434;13.238;2023-04-16T08:17:22;26.92;;;16.58;;
32329;SDS011;18807;52.434;13.238;2023-04-16T08:24:56;26.63;;;14.77;;
32329;SDS011;18807;52.434;13.238;2023-04-16T08:32:32;27.20;;;14.70;;
32329;SDS011;18807;52.434;13.238;2023-04-16T08:40:07;29.38;;;15.80;;
32329;SDS011;18807;52.434;13.238;2023-04-16T08:47:44;31.63;;;16.95;;
32329;SDS011;18807;52.434;13.238;2023-04-16T08:55:38;30.50;;;17.20;;
32329;SDS011;18807;52.434;13.238;2023-04-16T09:03:15;24.60;;;14.93;;
32329;SDS011;18807;52.434;13.238;2023-04-16T09:10:51;23.63;;;15.65;;
32329;SDS011;18807;52.434;13.238;2023-04-16T09:26:03;24.65;;;15.25;;
32329;SDS011;18807;52.434;13.238;2023-04-16T09:41:14;19.58;;;13.38;;
32329;SDS011;18807;52.434;13.238;2023-04-16T09:48:50;19.58;;;12.25;;
32329;SDS011;18807;52.434;13.238;2023-04-16T09:56:24;20.45;;;12.07;;
32329;SDS011;18807;52.434;13.238;2023-04-16T10:04:02;19.70;;;11.93;;
32329;SDS011;18807;52.434;13.238;2023-04-16T10:11:41;24.40;;;13.85;;
32329;SDS011;18807;52.434;13.238;2023-04-16T10:19:17;19.63;;;11.70;;
32329;SDS011;18807;52.434;13.238;2023-04-16T10:26:51;24.75;;;15.20;;
32329;SDS011;18807;52.434;13.238;2023-04-16T10:34:44;25.05;;;14.10;;
32329;SDS011;18807;52.434;13.238;2023-04-16T10:42:19;29.65;;;17.17;;
32329;SDS011;18807;52.434;13.238;2023-04-16T10:49:54;31.85;;;18.20;;
32329;SDS011;18807;52.434;13.238;2023-04-16T10:57:28;29.67;;;17.23;;
32329;SDS011;18807;52.434;13.238;2023-04-16T11:05:04;30.55;;;17.55;;
32329;SDS011;18807;52.434;13.238;2023-04-16T11:12:40;28.73;;;17.63;;
32329;SDS011;18807;52.434;13.238;2023-04-16T11:20:18;34.50;;;18.63;;
32329;SDS011;18807;52.434;13.238;2023-04-16T11:27:53;32.88;;;20.38;;
32329;SDS011;18807;52.434;13.238;2023-04-16T11:35:30;32.67;;;18.83;;
32329;SDS011;18807;52.434;13.238;2023-04-16T11:43:21;33.13;;;18.92;;
32329;SDS011;18807;52.434;13.238;2023-04-16T11:50:57;35.67;;;19.40;;
32329;SDS011;18807;52.434;13.238;2023-04-16T11:58:31;32.85;;;18.73;;
32329;SDS011;18807;52.434;13.238;2023-04-16T12:13:42;22.92;;;15.18;;
32329;SDS011;18807;52.434;13.238;2023-04-16T12:21:17;24.50;;;17.35;;
32329;SDS011;18807;52.434;13.238;2023-04-16T12:28:51;21.95;;;14.18;;
32329;SDS011;18807;52.434;13.238;2023-04-16T12:36:27;27.67;;;14.63;;
32329;SDS011;18807;52.434;13.238;2023-04-16T12:44:02;18.65;;;12.65;;
32329;SDS011;18807;52.434;13.238;2023-04-16T12:51:39;18.98;;;11.98;;
32329;SDS011;18807;52.434;13.238;2023-04-16T12:59:16;19.80;;;11.32;;
32329;SDS011;18807;52.434;13.238;2023-04-16T13:06:53;18.10;;;12.35;;
32329;SDS011;18807;52.434;13.238;2023-04-16T13:14:28;14.25;;;10.82;;
32329;SDS011;18807;52.434;13.238;2023-04-16T13:22:04;17.65;;;10.30;;
32329;SDS011;18807;52.434;13.238;2023-04-16T13:29:55;15.25;;;10.40;;
32329;SDS011;18807;52.434;13.238;2023-04-16T13:37:31;17.05;;;9.82;;
32329;SDS011;18807;52.434;13.238;2023-04-16T13:45:05;11.02;;;8.07;;
32329;SDS011;18807;52.434;13.238;2023-04-16T13:52:42;13.20;;;9.98;;
32329;SDS011;18807;52.434;13.238;2023-04-16T14:00:16;12.10;;;9.45;;
32329;SDS011;18807;52.434;13.238;2023-04-16T14:07:52;13.18;;;9.70;;
32329;SDS011;18807;52.434;13.238;2023-04-16T14:15:26;17.38;;;11.52;;
32329;SDS011;18807;52.434;13.238;2023-04-16T14:23:02;15.90;;;11.10;;
32329;SDS011;18807;52.434;13.238;2023-04-16T14:30:36;13.23;;;9.68;;
32329;SDS011;18807;52.434;13.238;2023-04-16T14:38:11;12.65;;;9.45;;
32329;SDS011;18807;52.434;13.238;2023-04-16T14:45:45;13.77;;;9.57;;
32329;SDS011;18807;52.434;13.238;2023-04-16T14:53:21;14.93;;;10.53;;
32329;SDS011;18807;52.434;13.238;2023-04-16T15:00:56;14.73;;;10.00;;
32329;SDS011;18807;52.434;13.238;2023-04-16T15:16:07;10.27;;;7.07;;
32329;SDS011;18807;52.434;13.238;2023-04-16T15:23:42;10.57;;;6.78;;
32329;SDS011;18807;52.434;13.238;2023-04-16T15:31:16;8.63;;;6.72;;
32329;SDS011;18807;52.434;13.238;2023-04-16T15:38:53;7.57;;;5.15;;
32329;SDS011;18807;52.434;13.238;2023-04-16T15:46:27;8.00;;;6.18;;
32329;SDS011;18807;52.434;13.238;2023-04-16T15:54:04;8.60;;;6.40;;
32329;SDS011;18807;52.434;13.238;2023-04-16T16:01:38;7.95;;;6.38;;
32329;SDS011;18807;52.434;13.238;2023-04-16T16:09:14;6.53;;;5.28;;
32329;SDS011;18807;52.434;13.238;2023-04-16T16:16:48;8.55;;;6.13;;
32329;SDS011;18807;52.434;13.238;2023-04-16T16:24:23;9.32;;;7.55;;
32329;SDS011;18807;52.434;13.238;2023-04-16T16:31:57;7.88;;;6.55;;
32329;SDS011;18807;52.434;13.238;2023-04-16T16:39:33;10.50;;;8.10;;
32329;SDS011;18807;52.434;13.238;2023-04-16T16:47:10;12.07;;;8.13;;
32329;SDS011;18807;52.434;13.238;2023-04-16T16:54:45;12.93;;;9.30;;
32329;SDS011;18807;52.434;13.238;2023-04-16T17:02:19;13.43;;;9.90;;
32329;SDS011;18807;52.434;13.238;2023-04-16T17:09:55;13.17;;;9.80;;
32329;SDS011;18807;52.434;13.238;2023-04-16T17:17:34;10.77;;;9.15;;
32329;SDS011;18807;52.434;13.238;2023-04-16T17:25:13;13.73;;;11.33;;
32329;SDS011;18807;52.434;13.238;2023-04-16T17:33:25;11.45;;;9.65;;
32329;SDS011;18807;52.434;13.238;2023-04-16T17:41:00;11.88;;;8.90;;
32329;SDS011;18807;52.434;13.238;2023-04-16T17:48:34;13.02;;;9.40;;
32329;SDS011;18807;52.434;13.238;2023-04-16T17:56:10;16.97;;;10.73;;
32329;SDS011;18807;52.434;13.238;2023-04-16T18:03:45;11.57;;;8.70;;
32329;SDS011;18807;52.434;13.238;2023-04-16T18:11:21;13.27;;;8.57;;
32329;SDS011;18807;52.434;13.238;2023-04-16T18:18:54;11.57;;;7.65;;
32329;SDS011;18807;52.434;13.238;2023-04-16T18:26:30;11.23;;;8.93;;
32329;SDS011;18807;52.434;13.238;2023-04-16T18:34:07;15.27;;;9.23;;
32329;SDS011;18807;52.434;13.238;2023-04-16T18:41:43;16.37;;;10.93;;
32329;SDS011;18807;52.434;13.238;2023-04-16T18:49:19;12.48;;;8.93;;
32329;SDS011;18807;52.434;13.238;2023-04-16T18:56:54;18.00;;;9.27;;
32329;SDS011;18807;52.434;13.238;2023-04-16T19:04:32;11.43;;;8.23;;
32329;SDS011;18807;52.434;13.238;2023-04-16T19:12:10;13.40;;;9.35;;
32329;SDS011;18807;52.434;13.238;2023-04-16T19:19:44;12.00;;;8.15;;
32329;SDS011;18807;52.434;13.238;2023-04-16T19:27:20;11.05;;;8.20;;
32329;SDS011;18807;52.434;13.238;2023-04-16T19:34:54;12.43;;;8.65;;
32329;SDS011;18807;52.434;13.238;2023-04-16T19:42:29;13.85;;;8.73;;
32329;SDS011;18807;52.434;13.238;2023-04-16T19:50:03;15.35;;;10.38;;
32329;SDS011;18807;52.434;13.238;2023-04-16T19:57:39;14.77;;;12.05;;
32329;SDS011;18807;52.434;13.238;2023-04-16T20:05:13;10.55;;;7.60;;
32329;SDS011;18807;52.434;13.238;2023-04-16T20:12:49;10.13;;;6.70;;
32329;SDS011;18807;52.434;13.238;2023-04-16T20:20:23;11.30;;;7.90;;
32329;SDS011;18807;52.434;13.238;2023-04-16T20:28:01;10.90;;;7.85;;
32329;SDS011;18807;52.434;13.238;2023-04-16T20:35:35;11.15;;;7.35;;
32329;SDS011;18807;52.434;13.238;2023-04-16T20:43:10;10.43;;;7.80;;
32329;SDS011;18807;52.434;13.238;2023-04-16T20:50:45;10.15;;;7.55;;
32329;SDS011;18807;52.434;13.238;2023-04-16T20:58:20;13.90;;;8.35;;
32329;SDS011;18807;52.434;13.238;2023-04-16T21:05:54;10.43;;;6.97;;
32329;SDS011;18807;52.434;13.238;2023-04-16T21:13:30;15.17;;;9.03;;
32329;SDS011;18807;52.434;13.238;2023-04-16T21:21:04;12.25;;;7.80;;
32329;SDS011;18807;52.434;13.238;2023-04-16T21:28:40;13.82;;;8.02;;
32329;SDS011;18807;52.434;13.238;2023-04-16T21:36:14;11.00;;;7.65;;
32329;SDS011;18807;52.434;13.238;2023-04-16T21:43:49;13.10;;;7.53;;
32329;SDS011;18807;52.434;13.238;2023-04-16T21:51:23;12.38;;;8.15;;
32329;SDS011;18807;52.434;13.238;2023-04-16T21:59:02;11.23;;;7.80;;
32329;SDS011;18807;52.434;13.238;2023-04-16T22:06:36;11.73;;;7.45;;
32329;SDS011;18807;52.434;13.238;2023-04-16T22:14:13;14.55;;;8.07;;
32329;SDS011;18807;52.434;13.238;2023-04-16T22:21:49;12.13;;;7.60;;
32329;SDS011;18807;52.434;13.238;2023-04-16T22:29:24;13.10;;;7.87;;
32329;SDS011;18807;52.434;13.238;2023-04-16T22:36:59;14.13;;;8.95;;
32329;SDS011;18807;52.434;13.238;2023-04-16T22:44:36;11.23;;;8.00;;
32329;SDS011;18807;52.434;13.238;2023-04-16T22:52:10;13.25;;;9.60;;
32329;SDS011;18807;52.434;13.238;2023-04-16T22:59:47;14.43;;;9.05;;
32329;SDS011;18807;52.434;13.238;2023-04-16T23:07:21;12.90;;;8.60;;
32329;SDS011;18807;52.434;13.238;2023-04-16T23:14:57;13.43;;;8.87;;
32329;SDS011;18807;52.434;13.238;2023-04-16T23:22:32;14.60;;;9.45;;
32329;SDS011;18807;52.434;13.238;2023-04-16T23:30:08;14.00;;;10.20;;
32329;SDS011;18807;52.434;13.238;2023-04-16T23:37:46;13.05;;;8.85;;
32329;SDS011;18807;52.434;13.238;2023-04-16T23:45:21;13.17;;;9.23;;
32329;SDS011;18807;52.434;13.238;2023-04-16T23:52:55;15.18;;;10.48;;
